Time;durP1;ratioP1;P1;durP2;ratioP2;P2;SDS_P1;SDS_P2;PMS_P1;PMS_P2;Temp;Humidity;BMP_temperature;BMP_pressure;BME280_temperature;BME280_humidity;BME280_pressure;Samples;Min_cycle;Max_cycle;Signal;HPM_P1;HPM_P2
2023/08/25 00:01:13;;;;;;;0.10;0.10;;;;;;;;;;5146331;27;20554;-56
2023/08/25 00:03:38;;;;;;;0.10;0.10;;;;;;;;;;5148355;27;20042;-52
2023/08/25 00:06:05;;;;;;;0.10;0.10;;;;;;;;;;5148171;27;20051;-52
2023/08/25 00:08:30;;;;;;;0.10;0.10;;;;;;;;;;5148412;27;20119;-54
2023/08/25 00:10:56;;;;;;;0.10;0.10;;;;;;;;;;5148101;27;20507;-54
2023/08/25 00:13:21;;;;;;;0.10;0.10;;;;;;;;;;5148315;27;20047;-54
2023/08/25 00:15:48;;;;;;;0.20;0.20;;;;;;;;;;5148682;27;20050;-52
2023/08/25 00:18:14;;;;;;;0.10;0.10;;;;;;;;;;5148211;27;20051;-54
2023/08/25 00:20:40;;;;;;;0.10;0.10;;;;;;;;;;5128705;27;20053;-51
2023/08/25 00:23:06;;;;;;;0.10;0.10;;;;;;;;;;5148300;27;20095;-50
2023/08/25 00:25:32;;;;;;;0.10;0.10;;;;;;;;;;5148810;27;20042;-51
2023/08/25 00:27:57;;;;;;;0.10;0.10;;;;;;;;;;5129225;27;20062;-51
2023/08/25 00:30:23;;;;;;;0.20;0.20;;;;;;;;;;5147812;27;20064;-56
2023/08/25 00:32:49;;;;;;;0.10;0.10;;;;;;;;;;5148281;27;20331;-50
2023/08/25 00:35:14;;;;;;;0.10;0.10;;;;;;;;;;5148496;27;20051;-52
2023/08/25 00:37:40;;;;;;;0.10;0.10;;;;;;;;;;5148268;27;20125;-55
2023/08/25 00:40:06;;;;;;;0.10;0.10;;;;;;;;;;5147486;27;20251;-51
2023/08/25 00:42:31;;;;;;;0.10;0.10;;;;;;;;;;5132519;27;20050;-52
2023/08/25 00:44:57;;;;;;;0.10;0.10;;;;;;;;;;5147392;27;20487;-54
2023/08/25 00:47:24;;;;;;;0.10;0.10;;;;;;;;;;5145813;27;20054;-51
2023/08/25 00:49:50;;;;;;;0.10;0.10;;;;;;;;;;5126990;28;20047;-55
2023/08/25 00:52:16;;;;;;;0.10;0.10;;;;;;;;;;5146849;27;20043;-53
2023/08/25 00:54:43;;;;;;;0.10;0.10;;;;;;;;;;5148137;27;20067;-55
2023/08/25 00:57:08;;;;;;;0.10;0.10;;;;;;;;;;5129369;27;20042;-54
2023/08/25 00:59:35;;;;;;;0.10;0.10;;;;;;;;;;5147406;27;20047;-52
2023/08/25 01:02:01;;;;;;;0.10;0.10;;;;;;;;;;5146240;27;20569;-52
2023/08/25 01:04:27;;;;;;;0.10;0.10;;;;;;;;;;5147534;27;20475;-54
2023/08/25 01:06:54;;;;;;;0.10;0.10;;;;;;;;;;5146226;27;20091;-55
2023/08/25 01:09:20;;;;;;;0.10;0.10;;;;;;;;;;5146557;27;20077;-55
2023/08/25 01:12:04;;;;;;;0.10;0.10;;;;;;;;;;5145634;27;20183;-54
2023/08/25 01:14:40;;;;;;;0.20;0.20;;;;;;;;;;5146601;27;20250;-55
2023/08/25 01:17:17;;;;;;;0.10;0.10;;;;;;;;;;5146620;27;20050;-55
2023/08/25 01:19:50;;;;;;;0.10;0.10;;;;;;;;;;5125574;28;20255;-55
2023/08/25 01:22:18;;;;;;;0.10;0.10;;;;;;;;;;5145525;27;20111;-55
2023/08/25 01:24:46;;;;;;;0.10;0.10;;;;;;;;;;5147359;27;20400;-55
2023/08/25 01:27:12;;;;;;;0.10;0.10;;;;;;;;;;5146556;27;20179;-52
2023/08/25 01:29:40;;;;;;;0.10;0.10;;;;;;;;;;5146050;27;20068;-55
2023/08/25 01:32:06;;;;;;;0.10;0.10;;;;;;;;;;5145851;27;20046;-55
2023/08/25 01:34:33;;;;;;;0.10;0.10;;;;;;;;;;5146810;27;20055;-56
2023/08/25 01:37:04;;;;;;;0.10;0.10;;;;;;;;;;5146604;27;20103;-50
2023/08/25 01:39:31;;;;;;;0.10;0.10;;;;;;;;;;5146297;27;20061;-53
2023/08/25 01:42:00;;;;;;;0.10;0.10;;;;;;;;;;5135480;27;20074;-56
2023/08/25 01:44:27;;;;;;;0.10;0.10;;;;;;;;;;5145955;27;20407;-51
2023/08/25 01:46:58;;;;;;;0.10;0.10;;;;;;;;;;5144733;27;20081;-51
2023/08/25 01:49:24;;;;;;;0.10;0.10;;;;;;;;;;5144616;27;20093;-52
2023/08/25 01:51:49;;;;;;;0.10;0.10;;;;;;;;;;5127113;27;20050;-53
2023/08/25 01:54:15;;;;;;;0.10;0.10;;;;;;;;;;5145947;27;20070;-51
2023/08/25 01:56:40;;;;;;;0.35;0.13;;;;;;;;;;5146355;27;20142;-50
2023/08/25 01:59:06;;;;;;;0.10;0.10;;;;;;;;;;5127212;27;20137;-55
2023/08/25 02:01:31;;;;;;;0.10;0.10;;;;;;;;;;5145246;27;20453;-52
2023/08/25 02:03:57;;;;;;;0.10;0.10;;;;;;;;;;5146642;27;20051;-55
2023/08/25 02:06:23;;;;;;;0.10;0.10;;;;;;;;;;5146638;27;20045;-54
2023/08/25 02:08:49;;;;;;;0.10;0.10;;;;;;;;;;5145494;27;20413;-52
2023/08/25 02:11:14;;;;;;;0.20;0.20;;;;;;;;;;5145968;27;20047;-55
2023/08/25 02:13:40;;;;;;;0.10;0.10;;;;;;;;;;5127957;27;20552;-55
2023/08/25 02:16:05;;;;;;;0.10;0.10;;;;;;;;;;5146524;27;20070;-53
2023/08/25 02:18:31;;;;;;;0.10;0.10;;;;;;;;;;5127627;27;20046;-55
2023/08/25 02:20:56;;;;;;;0.10;0.10;;;;;;;;;;5145517;27;20684;-51
2023/08/25 02:23:22;;;;;;;0.10;0.10;;;;;;;;;;5145734;27;20380;-50
2023/08/25 02:25:48;;;;;;;0.10;0.10;;;;;;;;;;5145697;27;20541;-55
2023/08/25 02:28:13;;;;;;;0.10;0.10;;;;;;;;;;5144904;27;20054;-55
2023/08/25 02:30:39;;;;;;;0.10;0.10;;;;;;;;;;5145293;27;20049;-56
2023/08/25 02:33:04;;;;;;;0.10;0.10;;;;;;;;;;5145269;27;20061;-52
2023/08/25 02:35:30;;;;;;;0.10;0.10;;;;;;;;;;5145571;27;20151;-51
2023/08/25 02:38:00;;;;;;;0.10;0.10;;;;;;;;;;5145803;27;20151;-55
2023/08/25 02:40:25;;;;;;;0.10;0.10;;;;;;;;;;5126636;27;20547;-55
2023/08/25 02:42:51;;;;;;;0.10;0.10;;;;;;;;;;5124641;27;20042;-51
2023/08/25 02:45:17;;;;;;;0.10;0.10;;;;;;;;;;5166054;27;20091;-51
2023/08/25 02:47:42;;;;;;;0.10;0.10;;;;;;;;;;5145366;27;20490;-55
2023/08/25 02:50:08;;;;;;;0.10;0.10;;;;;;;;;;5146000;27;20054;-55
2023/08/25 02:52:34;;;;;;;0.10;0.10;;;;;;;;;;5145754;27;20519;-54
2023/08/25 02:55:00;;;;;;;0.10;0.10;;;;;;;;;;5146356;27;20050;-51
2023/08/25 02:57:26;;;;;;;0.10;0.10;;;;;;;;;;5127955;27;20107;-50
2023/08/25 02:59:51;;;;;;;0.10;0.10;;;;;;;;;;5145621;27;20043;-55
2023/08/25 03:02:17;;;;;;;0.10;0.10;;;;;;;;;;5146573;27;20259;-55
2023/08/25 03:04:43;;;;;;;0.10;0.10;;;;;;;;;;5147359;27;20408;-51
2023/08/25 03:07:08;;;;;;;0.10;0.10;;;;;;;;;;5146901;27;20053;-55
2023/08/25 03:09:34;;;;;;;0.10;0.10;;;;;;;;;;5145696;27;20050;-50
2023/08/25 03:11:59;;;;;;;0.10;0.10;;;;;;;;;;5145884;27;20077;-50
2023/08/25 03:14:26;;;;;;;0.10;0.10;;;;;;;;;;5146277;27;20254;-51
2023/08/25 03:16:52;;;;;;;0.10;0.10;;;;;;;;;;5146752;27;20086;-50
2023/08/25 03:19:18;;;;;;;0.10;0.10;;;;;;;;;;5127566;27;20047;-53
2023/08/25 03:21:44;;;;;;;0.10;0.10;;;;;;;;;;5127315;27;20115;-51
2023/08/25 03:24:09;;;;;;;0.10;0.10;;;;;;;;;;5147203;27;20509;-52
2023/08/25 03:26:35;;;;;;;0.10;0.10;;;;;;;;;;5127770;27;20415;-53
2023/08/25 03:29:00;;;;;;;0.10;0.10;;;;;;;;;;5146254;27;20118;-51
2023/08/25 03:31:26;;;;;;;0.10;0.10;;;;;;;;;;5144965;27;20491;-52
2023/08/25 03:33:51;;;;;;;0.10;0.10;;;;;;;;;;5127016;27;20050;-51
2023/08/25 03:36:17;;;;;;;0.10;0.10;;;;;;;;;;5148195;27;20047;-50
2023/08/25 03:38:42;;;;;;;0.10;0.10;;;;;;;;;;5149284;27;20370;-51
2023/08/25 03:41:08;;;;;;;0.10;0.10;;;;;;;;;;5149196;27;20463;-52
2023/08/25 03:43:35;;;;;;;0.10;0.10;;;;;;;;;;5151275;27;20474;-50
2023/08/25 03:46:01;;;;;;;0.10;0.10;;;;;;;;;;5169943;27;20133;-50
2023/08/25 03:48:26;;;;;;;0.10;0.10;;;;;;;;;;5156368;27;20052;-51
2023/08/25 03:50:52;;;;;;;0.10;0.10;;;;;;;;;;5148788;27;20047;-51
2023/08/25 03:53:18;;;;;;;0.10;0.10;;;;;;;;;;5148864;27;20374;-50
2023/08/25 03:55:43;;;;;;;0.10;0.10;;;;;;;;;;5148973;27;20049;-51
2023/08/25 03:58:09;;;;;;;0.10;0.10;;;;;;;;;;5148886;27;20165;-52
2023/08/25 04:00:35;;;;;;;0.10;0.10;;;;;;;;;;5148291;27;20065;-53
2023/08/25 04:03:04;;;;;;;0.10;0.10;;;;;;;;;;5148666;27;20546;-54
2023/08/25 04:05:30;;;;;;;0.10;0.10;;;;;;;;;;5148979;27;20043;-50
2023/08/25 04:07:56;;;;;;;0.10;0.10;;;;;;;;;;5148718;27;20499;-54
2023/08/25 04:10:23;;;;;;;0.10;0.10;;;;;;;;;;5148328;27;20050;-50
2023/08/25 04:12:48;;;;;;;0.10;0.10;;;;;;;;;;5148100;27;20186;-50
2023/08/25 04:15:14;;;;;;;0.10;0.10;;;;;;;;;;5149241;27;20503;-52
2023/08/25 04:17:39;;;;;;;0.10;0.10;;;;;;;;;;5149206;27;20230;-52
2023/08/25 04:20:05;;;;;;;0.10;0.10;;;;;;;;;;5147697;27;20103;-52
2023/08/25 04:22:31;;;;;;;0.10;0.10;;;;;;;;;;5148375;27;20042;-52
2023/08/25 04:24:56;;;;;;;0.30;0.30;;;;;;;;;;5148986;27;20061;-50
2023/08/25 04:27:22;;;;;;;0.10;0.10;;;;;;;;;;5148814;27;20047;-51
2023/08/25 04:29:48;;;;;;;0.10;0.10;;;;;;;;;;5148573;27;20134;-55
2023/08/25 04:32:15;;;;;;;0.10;0.10;;;;;;;;;;5148199;27;20081;-54
2023/08/25 04:34:41;;;;;;;0.10;0.10;;;;;;;;;;5148539;27;20081;-55
2023/08/25 04:37:06;;;;;;;0.20;0.20;;;;;;;;;;5147858;27;20108;-53
2023/08/25 04:39:32;;;;;;;0.10;0.10;;;;;;;;;;5141277;27;20096;-54
2023/08/25 04:41:57;;;;;;;0.10;0.10;;;;;;;;;;5148856;27;20079;-51
2023/08/25 04:44:23;;;;;;;0.10;0.10;;;;;;;;;;5168708;27;20076;-55
2023/08/25 04:46:48;;;;;;;0.10;0.10;;;;;;;;;;5168232;27;20046;-51
2023/08/25 04:49:14;;;;;;;0.10;0.10;;;;;;;;;;5157708;27;20050;-51
2023/08/25 04:51:39;;;;;;;0.10;0.10;;;;;;;;;;5146887;27;20462;-56
2023/08/25 04:54:05;;;;;;;0.10;0.10;;;;;;;;;;5147911;27;20058;-55
2023/08/25 04:56:30;;;;;;;0.20;0.20;;;;;;;;;;5147156;27;20150;-54
2023/08/25 04:58:56;;;;;;;0.10;0.10;;;;;;;;;;5146600;27;20240;-54
2023/08/25 05:01:21;;;;;;;0.10;0.10;;;;;;;;;;5128184;27;20122;-52
2023/08/25 05:03:48;;;;;;;0.10;0.10;;;;;;;;;;5147645;27;20221;-53
2023/08/25 05:06:14;;;;;;;0.10;0.10;;;;;;;;;;5147568;27;20058;-61
2023/08/25 05:08:39;;;;;;;0.10;0.10;;;;;;;;;;5146376;27;20281;-54
2023/08/25 05:11:05;;;;;;;0.10;0.10;;;;;;;;;;5141917;27;20046;-52
2023/08/25 05:13:31;;;;;;;0.10;0.10;;;;;;;;;;5140269;27;20034;-51
2023/08/25 05:15:56;;;;;;;0.15;0.15;;;;;;;;;;5143393;27;20566;-54
2023/08/25 05:18:24;;;;;;;0.10;0.10;;;;;;;;;;5133669;27;20146;-55
2023/08/25 05:20:50;;;;;;;0.10;0.10;;;;;;;;;;5146470;27;20088;-51
2023/08/25 05:23:15;;;;;;;0.10;0.10;;;;;;;;;;5119781;28;20086;-54
2023/08/25 05:25:41;;;;;;;0.10;0.10;;;;;;;;;;5129455;27;20065;-53
2023/08/25 05:28:07;;;;;;;0.10;0.10;;;;;;;;;;5140841;27;20103;-54
2023/08/25 05:30:32;;;;;;;0.10;0.10;;;;;;;;;;5139961;27;20047;-51
2023/08/25 05:32:58;;;;;;;0.10;0.10;;;;;;;;;;5130576;27;20114;-51
2023/08/25 05:35:23;;;;;;;0.10;0.10;;;;;;;;;;5132908;27;20111;-52
2023/08/25 05:37:49;;;;;;;0.10;0.10;;;;;;;;;;5139044;27;20498;-50
2023/08/25 05:40:14;;;;;;;0.10;0.10;;;;;;;;;;5135791;27;20046;-51
2023/08/25 05:42:40;;;;;;;0.10;0.10;;;;;;;;;;5135451;27;20134;-54
2023/08/25 05:45:07;;;;;;;0.10;0.10;;;;;;;;;;5138542;27;20074;-51
2023/08/25 05:47:32;;;;;;;0.10;0.10;;;;;;;;;;5134990;27;20077;-55
2023/08/25 05:49:58;;;;;;;0.10;0.10;;;;;;;;;;5137214;27;20046;-54
2023/08/25 05:52:24;;;;;;;0.10;0.10;;;;;;;;;;5130974;27;20053;-50
2023/08/25 05:54:50;;;;;;;0.10;0.10;;;;;;;;;;5124058;27;20066;-52
2023/08/25 05:57:15;;;;;;;0.10;0.10;;;;;;;;;;5123868;27;20095;-53
2023/08/25 05:59:41;;;;;;;0.10;0.10;;;;;;;;;;5121024;27;20042;-54
2023/08/25 06:02:06;;;;;;;0.10;0.10;;;;;;;;;;5118421;27;20079;-60
2023/08/25 06:04:32;;;;;;;0.10;0.10;;;;;;;;;;5110623;27;20092;-53
2023/08/25 06:06:57;;;;;;;0.10;0.10;;;;;;;;;;5122911;27;20047;-55
2023/08/25 06:09:23;;;;;;;0.10;0.10;;;;;;;;;;5128798;27;20410;-56
2023/08/25 06:11:49;;;;;;;0.10;0.10;;;;;;;;;;5121590;27;20042;-56
2023/08/25 06:14:14;;;;;;;0.10;0.10;;;;;;;;;;5126212;27;20043;-55
2023/08/25 06:16:41;;;;;;;0.10;0.10;;;;;;;;;;5127283;27;20050;-54
2023/08/25 06:19:07;;;;;;;0.10;0.10;;;;;;;;;;5129715;27;20070;-56
2023/08/25 06:21:33;;;;;;;0.10;0.10;;;;;;;;;;5130462;27;20043;-55
2023/08/25 06:23:58;;;;;;;0.10;0.10;;;;;;;;;;5125911;27;20057;-54
2023/08/25 06:26:24;;;;;;;0.20;0.20;;;;;;;;;;5130569;27;20399;-54
2023/08/25 06:28:52;;;;;;;0.10;0.10;;;;;;;;;;5127360;27;20107;-55
2023/08/25 06:31:18;;;;;;;0.10;0.10;;;;;;;;;;5121147;27;20097;-55
2023/08/25 06:33:44;;;;;;;0.10;0.10;;;;;;;;;;5128469;27;20043;-55
2023/08/25 06:36:10;;;;;;;0.10;0.10;;;;;;;;;;5128512;27;20035;-56
2023/08/25 06:38:35;;;;;;;0.10;0.10;;;;;;;;;;5123957;27;20991;-56
2023/08/25 06:41:21;;;;;;;0.10;0.10;;;;;;;;;;5116571;27;20047;-53
2023/08/25 06:43:46;;;;;;;0.10;0.10;;;;;;;;;;5132427;27;20053;-55
2023/08/25 06:46:12;;;;;;;0.10;0.10;;;;;;;;;;5125245;27;20106;-55
2023/08/25 06:48:37;;;;;;;0.10;0.10;;;;;;;;;;5119285;27;20074;-56
2023/08/25 06:51:03;;;;;;;0.10;0.10;;;;;;;;;;5119270;27;20051;-55
2023/08/25 06:53:29;;;;;;;0.10;0.10;;;;;;;;;;5124008;27;20414;-56
2023/08/25 06:55:54;;;;;;;0.10;0.10;;;;;;;;;;5126683;27;20071;-55
2023/08/25 06:58:20;;;;;;;0.20;0.10;;;;;;;;;;5123805;27;20045;-59
2023/08/25 07:00:45;;;;;;;0.10;0.10;;;;;;;;;;5101764;27;20031;-54
2023/08/25 07:03:11;;;;;;;0.10;0.10;;;;;;;;;;5106589;27;20162;-55
2023/08/25 07:05:38;;;;;;;0.10;0.10;;;;;;;;;;5096264;27;20092;-55
2023/08/25 07:08:04;;;;;;;0.10;0.10;;;;;;;;;;5104246;27;20057;-55
2023/08/25 07:10:30;;;;;;;0.10;0.10;;;;;;;;;;5111930;27;20103;-55
2023/08/25 07:12:56;;;;;;;0.10;0.10;;;;;;;;;;5116376;27;20051;-55
2023/08/25 07:15:21;;;;;;;0.10;0.10;;;;;;;;;;5113205;27;20507;-54
2023/08/25 07:17:47;;;;;;;0.10;0.10;;;;;;;;;;5128780;27;20042;-55
2023/08/25 07:20:13;;;;;;;0.25;0.25;;;;;;;;;;5126325;27;20534;-55
2023/08/25 07:22:40;;;;;;;0.10;0.10;;;;;;;;;;5125351;27;20042;-56
2023/08/25 07:49:48;;;;;;;0.10;0.10;;;;;;;;;;5163331;27;20513;-43
2023/08/25 07:52:14;;;;;;;0.10;0.10;;;;;;;;;;5144470;27;20050;-45
2023/08/25 07:54:39;;;;;;;0.10;0.10;;;;;;;;;;5144479;27;20463;-43
2023/08/25 07:57:05;;;;;;;0.10;0.10;;;;;;;;;;5142408;27;20042;-43
2023/08/25 07:59:30;;;;;;;0.20;0.20;;;;;;;;;;5144740;27;20046;-44
2023/08/25 08:01:56;;;;;;;0.10;0.10;;;;;;;;;;5145101;27;20098;-45
2023/08/25 08:04:21;;;;;;;0.10;0.10;;;;;;;;;;5129424;27;20067;-44
2023/08/25 08:06:47;;;;;;;0.00;0.00;;;;;;;;;;5129023;27;20047;-42
2023/08/25 08:09:13;;;;;;;0.10;0.10;;;;;;;;;;5133033;27;20523;-44
2023/08/25 08:11:39;;;;;;;0.10;0.10;;;;;;;;;;5128949;27;20046;-43
2023/08/25 08:14:04;;;;;;;0.10;0.10;;;;;;;;;;5135466;27;20035;-44
2023/08/25 08:16:30;;;;;;;0.10;0.10;;;;;;;;;;5140267;27;20050;-43
2023/08/25 08:18:56;;;;;;;0.10;0.10;;;;;;;;;;5137102;27;20452;-47
2023/08/25 08:21:21;;;;;;;0.10;0.10;;;;;;;;;;5134793;27;20392;-45
2023/08/25 08:23:47;;;;;;;0.10;0.10;;;;;;;;;;5134215;27;20829;-46
2023/08/25 08:26:13;;;;;;;0.10;0.10;;;;;;;;;;5142199;27;20065;-46
2023/08/25 08:28:38;;;;;;;0.10;0.10;;;;;;;;;;5150564;27;20646;-43
2023/08/25 08:31:05;;;;;;;0.10;0.10;;;;;;;;;;5135299;27;20092;-44
2023/08/25 08:33:31;;;;;;;0.10;0.10;;;;;;;;;;5135428;27;20054;-44
2023/08/25 08:35:57;;;;;;;0.10;0.10;;;;;;;;;;5129497;27;20057;-45
2023/08/25 08:38:23;;;;;;;0.10;0.10;;;;;;;;;;5134450;27;20051;-43
2023/08/25 08:40:49;;;;;;;0.10;0.10;;;;;;;;;;5139384;27;20134;-43
2023/08/25 08:43:17;;;;;;;0.10;0.10;;;;;;;;;;5124789;27;20066;-43
2023/08/25 08:45:42;;;;;;;0.10;0.10;;;;;;;;;;5126049;27;20542;-43
2023/08/25 08:48:09;;;;;;;0.10;0.10;;;;;;;;;;5127351;27;20394;-46
2023/08/25 08:50:34;;;;;;;0.10;0.10;;;;;;;;;;5115353;28;20555;-43
2023/08/25 08:53:00;;;;;;;0.20;0.20;;;;;;;;;;5108235;28;20217;-43
2023/08/25 08:55:27;;;;;;;0.10;0.10;;;;;;;;;;5108406;28;20067;-45
2023/08/25 08:57:52;;;;;;;0.08;0.08;;;;;;;;;;5115947;28;20062;-45
2023/08/25 09:00:18;;;;;;;0.10;0.10;;;;;;;;;;5113962;28;20039;-43
2023/08/25 09:02:49;;;;;;;0.10;0.10;;;;;;;;;;5112655;27;20047;-43
2023/08/25 09:05:15;;;;;;;0.10;0.10;;;;;;;;;;5107575;28;20486;-43
2023/08/25 09:07:42;;;;;;;0.20;0.20;;;;;;;;;;5119562;28;20136;-45
2023/08/25 09:10:10;;;;;;;0.00;0.00;;;;;;;;;;5115274;28;20135;-43
2023/08/25 09:12:35;;;;;;;0.00;0.00;;;;;;;;;;5113107;27;20477;-45
2023/08/25 09:15:01;;;;;;;0.00;0.00;;;;;;;;;;5118369;27;20046;-45
2023/08/25 09:17:26;;;;;;;0.10;0.10;;;;;;;;;;5118974;27;20088;-44
2023/08/25 09:20:03;;;;;;;0.10;0.10;;;;;;;;;;5109689;28;20075;-44
2023/08/25 09:22:29;;;;;;;0.10;0.10;;;;;;;;;;5116483;27;20074;-44
2023/08/25 09:24:57;;;;;;;0.10;0.10;;;;;;;;;;5115616;27;20409;-44
2023/08/25 09:27:24;;;;;;;0.10;0.10;;;;;;;;;;5118374;27;20078;-43
2023/08/25 09:29:56;;;;;;;0.10;0.10;;;;;;;;;;5119401;27;20039;-47
2023/08/25 09:32:23;;;;;;;0.10;0.10;;;;;;;;;;5110547;27;20677;-45
2023/08/25 09:34:48;;;;;;;0.10;0.10;;;;;;;;;;5106727;27;20066;-43
2023/08/25 09:37:14;;;;;;;0.10;0.10;;;;;;;;;;5108010;27;20043;-42
2023/08/25 09:39:42;;;;;;;0.10;0.10;;;;;;;;;;5105934;28;20043;-43
2023/08/25 09:42:08;;;;;;;0.10;0.10;;;;;;;;;;5116137;28;20051;-45
2023/08/25 09:44:34;;;;;;;0.10;0.10;;;;;;;;;;5112936;28;20031;-43
2023/08/25 09:47:00;;;;;;;0.10;0.10;;;;;;;;;;5109842;28;20327;-42
2023/08/25 09:49:36;;;;;;;0.10;0.10;;;;;;;;;;5113550;27;20082;-45
2023/08/25 09:52:02;;;;;;;0.10;0.10;;;;;;;;;;5123747;28;20039;-44
2023/08/25 09:54:27;;;;;;;0.10;0.10;;;;;;;;;;5115630;27;20047;-43
2023/08/25 09:56:53;;;;;;;0.05;0.05;;;;;;;;;;5112961;28;20500;-43
2023/08/25 09:59:19;;;;;;;0.10;0.10;;;;;;;;;;5119297;27;20074;-44
2023/08/25 10:01:45;;;;;;;0.10;0.10;;;;;;;;;;5127075;27;20051;-43
2023/08/25 10:04:11;;;;;;;0.10;0.10;;;;;;;;;;5121031;27;20407;-44
2023/08/25 10:06:37;;;;;;;0.38;0.30;;;;;;;;;;5123815;27;20048;-43
2023/08/25 10:09:03;;;;;;;0.10;0.10;;;;;;;;;;5119401;28;20042;-45
2023/08/25 10:11:37;;;;;;;0.10;0.10;;;;;;;;;;5115470;27;20485;-44
2023/08/25 10:14:04;;;;;;;0.10;0.10;;;;;;;;;;5113755;28;20063;-44
2023/08/25 10:16:33;;;;;;;0.03;0.03;;;;;;;;;;5127619;28;20055;-43
2023/08/25 10:19:01;;;;;;;0.10;0.10;;;;;;;;;;5126790;27;20253;-44
2023/08/25 10:21:27;;;;;;;0.00;0.00;;;;;;;;;;5127884;28;20100;-43
2023/08/25 10:23:54;;;;;;;0.10;0.10;;;;;;;;;;5127281;27;20446;-45
2023/08/25 10:26:20;;;;;;;0.10;0.10;;;;;;;;;;5127430;28;20055;-44
2023/08/25 10:28:46;;;;;;;0.10;0.10;;;;;;;;;;5118127;27;20046;-45
2023/08/25 10:31:12;;;;;;;0.10;0.10;;;;;;;;;;5117493;28;20263;-44
2023/08/25 10:33:46;;;;;;;0.10;0.10;;;;;;;;;;5127865;27;20537;-43
2023/08/25 10:36:14;;;;;;;0.10;0.10;;;;;;;;;;5128452;27;20043;-44
2023/08/25 10:38:39;;;;;;;0.10;0.10;;;;;;;;;;5120551;28;20071;-44
2023/08/25 10:41:14;;;;;;;0.10;0.10;;;;;;;;;;5128535;28;20049;-44
2023/08/25 10:43:40;;;;;;;0.10;0.10;;;;;;;;;;5127276;27;20128;-44
2023/08/25 10:46:07;;;;;;;0.10;0.10;;;;;;;;;;5124287;27;20120;-44
2023/08/25 10:48:32;;;;;;;0.10;0.10;;;;;;;;;;5126084;28;20059;-44
2023/08/25 10:51:11;;;;;;;0.10;0.10;;;;;;;;;;5129511;28;20047;-43
2023/08/25 10:53:37;;;;;;;0.10;0.10;;;;;;;;;;5126423;28;20427;-57
2023/08/25 10:56:21;;;;;;;0.10;0.10;;;;;;;;;;5124456;28;20059;-45
2023/08/25 10:58:58;;;;;;;0.10;0.10;;;;;;;;;;5120151;28;20490;-44
2023/08/25 11:01:25;;;;;;;0.10;0.10;;;;;;;;;;5115287;28;20420;-45
2023/08/25 11:04:11;;;;;;;0.10;0.10;;;;;;;;;;5116682;28;20039;-43
2023/08/25 11:06:45;;;;;;;0.10;0.10;;;;;;;;;;5126987;28;20130;-43
2023/08/25 11:09:20;;;;;;;0.10;0.10;;;;;;;;;;5126863;27;20066;-43
2023/08/25 11:11:54;;;;;;;0.10;0.10;;;;;;;;;;5128142;27;20043;-44
2023/08/25 11:14:20;;;;;;;0.20;0.20;;;;;;;;;;5120277;27;20086;-44
2023/08/25 11:16:47;;;;;;;0.10;0.10;;;;;;;;;;5123513;27;20133;-43
2023/08/25 11:19:13;;;;;;;0.10;0.10;;;;;;;;;;5127598;28;20105;-44
2023/08/25 11:21:39;;;;;;;0.10;0.10;;;;;;;;;;5118837;27;20181;-44
2023/08/25 11:24:05;;;;;;;0.10;0.10;;;;;;;;;;5120649;28;20118;-45
2023/08/25 11:26:34;;;;;;;0.10;0.10;;;;;;;;;;5125224;28;20055;-44
2023/08/25 11:28:59;;;;;;;0.10;0.10;;;;;;;;;;5112744;27;20083;-44
2023/08/25 11:31:25;;;;;;;0.30;0.30;;;;;;;;;;5126530;27;20563;-45
2023/08/25 11:33:52;;;;;;;0.10;0.10;;;;;;;;;;5123524;27;20100;-45
2023/08/25 11:36:17;;;;;;;0.10;0.10;;;;;;;;;;5106423;28;20085;-44
2023/08/25 11:38:47;;;;;;;0.10;0.10;;;;;;;;;;5118143;28;20055;-44
2023/08/25 11:41:14;;;;;;;0.10;0.10;;;;;;;;;;5137240;27;20057;-45
2023/08/25 11:43:39;;;;;;;0.10;0.10;;;;;;;;;;5136815;27;20127;-43
2023/08/25 11:46:05;;;;;;;0.10;0.10;;;;;;;;;;5128091;28;20047;-45
2023/08/25 11:48:32;;;;;;;0.10;0.10;;;;;;;;;;5127761;27;20043;-43
2023/08/25 11:50:58;;;;;;;0.10;0.10;;;;;;;;;;5128643;27;20051;-44
2023/08/25 11:53:23;;;;;;;0.10;0.10;;;;;;;;;;5127553;28;20143;-44
2023/08/25 11:56:05;;;;;;;0.10;0.10;;;;;;;;;;5128072;28;20054;-44
2023/08/25 11:58:34;;;;;;;0.10;0.10;;;;;;;;;;5126698;28;20078;-43
2023/08/25 12:01:07;;;;;;;0.10;0.10;;;;;;;;;;5128969;27;20043;-43
2023/08/25 12:03:34;;;;;;;0.10;0.10;;;;;;;;;;5125881;28;20432;-44
2023/08/25 12:06:03;;;;;;;0.20;0.20;;;;;;;;;;5127988;27;20065;-44
2023/08/25 12:08:29;;;;;;;0.10;0.10;;;;;;;;;;5126689;28;20303;-46
2023/08/25 12:10:55;;;;;;;0.10;0.10;;;;;;;;;;5128451;28;20047;-44
2023/08/25 12:13:25;;;;;;;0.10;0.10;;;;;;;;;;5126997;27;20100;-44
2023/08/25 12:15:51;;;;;;;0.10;0.10;;;;;;;;;;5127473;28;20055;-43
2023/08/25 12:18:17;;;;;;;0.10;0.10;;;;;;;;;;5126157;28;20039;-45
2023/08/25 12:20:44;;;;;;;0.10;0.10;;;;;;;;;;5128170;28;20388;-45
2023/08/25 12:23:09;;;;;;;0.10;0.10;;;;;;;;;;5126012;28;20126;-44
2023/08/25 12:25:35;;;;;;;0.10;0.10;;;;;;;;;;5124254;27;20070;-44
2023/08/25 12:28:00;;;;;;;0.10;0.10;;;;;;;;;;5115486;28;20076;-44
2023/08/25 12:30:28;;;;;;;0.10;0.10;;;;;;;;;;5130283;28;20117;-45
2023/08/25 12:32:54;;;;;;;0.10;0.10;;;;;;;;;;5117926;27;20087;-44
2023/08/25 12:35:22;;;;;;;0.10;0.10;;;;;;;;;;5142285;27;20053;-46
2023/08/25 12:37:47;;;;;;;0.10;0.10;;;;;;;;;;5141997;27;20075;-43
2023/08/25 12:40:13;;;;;;;0.10;0.10;;;;;;;;;;5148430;27;20058;-42
2023/08/25 12:42:39;;;;;;;0.10;0.10;;;;;;;;;;5130583;27;20139;-44
2023/08/25 12:45:05;;;;;;;0.10;0.10;;;;;;;;;;5130358;28;20051;-44
2023/08/25 12:47:30;;;;;;;0.10;0.10;;;;;;;;;;5127577;27;20062;-43
2023/08/25 12:49:56;;;;;;;0.10;0.10;;;;;;;;;;5110939;28;20051;-44
2023/08/25 12:52:21;;;;;;;0.10;0.10;;;;;;;;;;5110437;28;20071;-44
2023/08/25 12:54:47;;;;;;;0.10;0.10;;;;;;;;;;5125564;28;20043;-43
2023/08/25 12:57:12;;;;;;;0.10;0.10;;;;;;;;;;5130950;28;20134;-45
2023/08/25 12:59:38;;;;;;;0.10;0.10;;;;;;;;;;5131011;28;20172;-44
2023/08/25 13:02:04;;;;;;;0.10;0.10;;;;;;;;;;5131025;28;20146;-43
2023/08/25 13:04:29;;;;;;;0.10;0.10;;;;;;;;;;5130003;28;20539;-44
2023/08/25 13:06:55;;;;;;;0.10;0.10;;;;;;;;;;5131213;28;20148;-43
2023/08/25 13:09:20;;;;;;;0.10;0.10;;;;;;;;;;5111390;28;20139;-44
2023/08/25 13:11:47;;;;;;;0.38;0.20;;;;;;;;;;5109924;28;20417;-44
2023/08/25 13:14:13;;;;;;;0.10;0.10;;;;;;;;;;5120078;28;20047;-44
2023/08/25 13:16:39;;;;;;;0.10;0.10;;;;;;;;;;5130827;27;20089;-43
2023/08/25 13:19:05;;;;;;;0.10;0.10;;;;;;;;;;5130425;27;20082;-44
2023/08/25 13:21:30;;;;;;;0.10;0.10;;;;;;;;;;5130788;27;20411;-44
2023/08/25 13:23:56;;;;;;;0.10;0.10;;;;;;;;;;5129980;28;20099;-44
2023/08/25 13:26:34;;;;;;;0.10;0.10;;;;;;;;;;5130447;27;20039;-43
2023/08/25 13:29:02;;;;;;;0.10;0.10;;;;;;;;;;5126584;28;20055;-43
2023/08/25 13:31:28;;;;;;;0.10;0.10;;;;;;;;;;5129935;27;20043;-43
2023/08/25 13:33:54;;;;;;;0.10;0.10;;;;;;;;;;5116647;27;20140;-43
2023/08/25 13:36:21;;;;;;;0.10;0.10;;;;;;;;;;5132457;27;20059;-43
2023/08/25 13:38:46;;;;;;;0.10;0.10;;;;;;;;;;5137139;27;20063;-43
2023/08/25 13:41:12;;;;;;;0.10;0.10;;;;;;;;;;5141823;27;20139;-43
2023/08/25 13:43:39;;;;;;;0.10;0.10;;;;;;;;;;5129491;28;20043;-43
2023/08/25 13:46:05;;;;;;;0.10;0.10;;;;;;;;;;5130287;27;20077;-43
2023/08/25 13:48:32;;;;;;;0.10;0.10;;;;;;;;;;5130148;27;20141;-44
2023/08/25 13:50:57;;;;;;;0.10;0.10;;;;;;;;;;5130737;27;20043;-43
2023/08/25 13:53:23;;;;;;;0.10;0.10;;;;;;;;;;5129653;27;20393;-43
2023/08/25 13:55:49;;;;;;;0.10;0.10;;;;;;;;;;5129655;28;20537;-43
2023/08/25 13:58:15;;;;;;;0.10;0.10;;;;;;;;;;5130493;27;20075;-43
2023/08/25 14:00:41;;;;;;;0.10;0.10;;;;;;;;;;5130399;28;20424;-43
2023/08/25 14:03:07;;;;;;;0.10;0.10;;;;;;;;;;5129606;28;20507;-44
2023/08/25 14:05:32;;;;;;;0.10;0.10;;;;;;;;;;5129650;28;20047;-43
2023/08/25 14:07:58;;;;;;;0.10;0.10;;;;;;;;;;5123766;28;20077;-43
2023/08/25 14:10:25;;;;;;;0.10;0.10;;;;;;;;;;5109679;28;20496;-43
2023/08/25 14:12:52;;;;;;;0.10;0.10;;;;;;;;;;5107909;28;20176;-44
2023/08/25 14:15:17;;;;;;;0.10;0.10;;;;;;;;;;5124115;28;20067;-44
2023/08/25 14:17:43;;;;;;;0.10;0.10;;;;;;;;;;5126179;28;20431;-43
2023/08/25 14:20:09;;;;;;;0.10;0.10;;;;;;;;;;5128432;28;20081;-43
2023/08/25 14:22:34;;;;;;;0.10;0.10;;;;;;;;;;5127961;28;20048;-43
2023/08/25 14:25:00;;;;;;;0.10;0.10;;;;;;;;;;5127522;28;20432;-43
2023/08/25 14:27:25;;;;;;;0.10;0.10;;;;;;;;;;5129350;28;20053;-43
2023/08/25 14:29:52;;;;;;;0.10;0.10;;;;;;;;;;5129344;28;20101;-43
2023/08/25 14:32:17;;;;;;;0.10;0.10;;;;;;;;;;5136622;27;20054;-43
2023/08/25 14:34:43;;;;;;;0.10;0.10;;;;;;;;;;5135881;27;20108;-43
2023/08/25 14:37:08;;;;;;;0.10;0.10;;;;;;;;;;5129811;28;20074;-43
2023/08/25 14:39:34;;;;;;;0.10;0.10;;;;;;;;;;5143087;27;20159;-43
2023/08/25 14:41:59;;;;;;;0.10;0.10;;;;;;;;;;5133475;27;20326;-43
2023/08/25 14:44:25;;;;;;;0.10;0.10;;;;;;;;;;5128928;28;20047;-43
2023/08/25 14:46:51;;;;;;;0.10;0.10;;;;;;;;;;5128762;27;20043;-44
2023/08/25 14:49:16;;;;;;;0.10;0.10;;;;;;;;;;5128805;27;20067;-43
2023/08/25 14:51:42;;;;;;;0.10;0.10;;;;;;;;;;5129279;27;20055;-44
2023/08/25 14:54:08;;;;;;;0.10;0.10;;;;;;;;;;5127244;27;20043;-43
2023/08/25 14:56:34;;;;;;;0.10;0.10;;;;;;;;;;5129267;28;20053;-43
2023/08/25 14:58:59;;;;;;;0.10;0.10;;;;;;;;;;5128967;27;20051;-44
2023/08/25 15:01:25;;;;;;;0.10;0.10;;;;;;;;;;5129006;28;20418;-43
2023/08/25 15:03:50;;;;;;;0.10;0.10;;;;;;;;;;5128458;28;20051;-43